createdAt,value
2023-03-27T00:00:15.969Z,1.60
2023-03-27T00:01:16.026Z,1.41
2023-03-27T00:02:16.134Z,1.65
2023-03-27T00:03:16.244Z,1.23
2023-03-27T00:04:18.127Z,1.12
2023-03-27T00:05:16.415Z,1.42
2023-03-27T00:06:16.516Z,1.36
2023-03-27T00:07:16.514Z,1.22
2023-03-27T00:08:16.571Z,1.62
2023-03-27T00:09:16.676Z,1.50
2023-03-27T00:10:16.711Z,1.45
2023-03-27T00:11:16.789Z,1.12
2023-03-27T00:12:16.835Z,1.52
2023-03-27T00:13:16.868Z,1.28
2023-03-27T00:14:16.938Z,1.20
2023-03-27T00:15:17.005Z,1.24
2023-03-27T00:16:17.104Z,1.24
2023-03-27T00:17:17.068Z,1.34
2023-03-27T00:18:17.194Z,1.47
2023-03-27T00:19:17.209Z,1.09
2023-03-27T00:20:17.280Z,2.46
2023-03-27T00:21:17.331Z,1.32
2023-03-27T00:22:17.407Z,1.45
2023-03-27T00:23:17.432Z,1.49
2023-03-27T00:24:17.527Z,0.86
2023-03-27T00:25:17.536Z,1.45
2023-03-27T00:26:17.600Z,1.22
2023-03-27T00:27:17.686Z,1.41
2023-03-27T00:28:17.725Z,1.13
2023-03-27T00:29:17.774Z,1.45
2023-03-27T00:30:17.855Z,1.17
2023-03-27T00:31:17.919Z,1.13
2023-03-27T00:32:17.951Z,1.36
2023-03-27T00:33:18.003Z,1.09
2023-03-27T00:34:18.081Z,1.33
2023-03-27T00:35:18.159Z,1.19
2023-03-27T00:36:18.175Z,1.26
2023-03-27T00:37:18.300Z,1.30
2023-03-27T00:38:18.294Z,1.01
2023-03-27T00:39:18.333Z,1.21
2023-03-27T00:40:18.397Z,1.15
2023-03-27T00:41:18.489Z,1.02
2023-03-27T00:42:18.525Z,1.36
2023-03-27T00:43:18.553Z,1.27
2023-03-27T00:44:18.572Z,1.02
2023-03-27T00:45:18.654Z,0.99
2023-03-27T00:46:18.730Z,1.09
2023-03-27T00:47:18.785Z,1.36
2023-03-27T00:48:18.805Z,1.03
2023-03-27T00:49:18.892Z,1.39
2023-03-27T00:50:18.944Z,1.18
2023-03-27T00:51:18.958Z,1.11
2023-03-27T00:52:19.026Z,1.08
2023-03-27T00:53:19.085Z,1.17
2023-03-27T00:54:19.520Z,0.93
2023-03-27T00:56:19.276Z,0.83
2023-03-27T00:57:19.312Z,1.13
2023-03-27T00:58:19.350Z,1.06
2023-03-27T00:59:19.423Z,0.88
2023-03-27T01:00:19.471Z,1.13
2023-03-27T01:01:19.595Z,0.99
2023-03-27T01:02:19.635Z,1.11
2023-03-27T01:03:19.716Z,1.14
2023-03-27T01:04:19.704Z,1.61
2023-03-27T01:05:19.750Z,1.09
2023-03-27T01:06:19.819Z,0.87
2023-03-27T01:07:19.851Z,1.03
2023-03-27T01:08:19.925Z,1.39
2023-03-27T01:10:20.060Z,1.04
2023-03-27T01:11:20.095Z,1.22
2023-03-27T01:12:20.193Z,1.05
2023-03-27T01:17:20.496Z,0.92
2023-03-27T01:18:20.519Z,1.07
2023-03-27T01:19:20.612Z,1.24
2023-03-27T01:20:20.637Z,1.19
2023-03-27T01:21:20.661Z,1.23
2023-03-27T01:22:20.758Z,1.15
2023-03-27T01:23:35.790Z,1.21
2023-03-27T01:33:20.742Z,0.85
2023-03-27T01:34:20.776Z,1.30
2023-03-27T01:35:20.882Z,1.15
2023-03-27T01:36:20.865Z,1.22
2023-03-27T01:37:20.906Z,1.09
2023-03-27T01:38:20.962Z,1.08
2023-03-27T01:39:21.044Z,0.89
2023-03-27T01:40:21.067Z,0.88
2023-03-27T01:41:21.066Z,0.99
2023-03-27T01:42:21.122Z,0.91
2023-03-27T01:43:21.143Z,1.15
2023-03-27T01:44:21.193Z,0.86
2023-03-27T01:45:21.225Z,1.36
2023-03-27T01:46:21.309Z,0.97
2023-03-27T01:47:21.416Z,1.08
2023-03-27T01:48:21.313Z,0.90
2023-03-27T01:49:21.329Z,0.91
2023-03-27T01:50:21.340Z,1.20
2023-03-27T01:51:21.373Z,1.16
2023-03-27T01:52:21.376Z,0.93
2023-03-27T01:53:21.439Z,0.91
2023-03-27T01:54:21.419Z,0.85
2023-03-27T01:55:21.419Z,0.98
2023-03-27T01:56:21.440Z,1.00
2023-03-27T01:59:21.467Z,1.12
2023-03-27T02:00:21.431Z,0.77
2023-03-27T02:02:21.448Z,1.22
2023-03-27T02:03:21.457Z,0.70
2023-03-27T02:04:21.497Z,0.91
2023-03-27T02:07:21.490Z,1.05
2023-03-27T02:08:21.517Z,0.86
2023-03-27T02:09:21.530Z,0.88
2023-03-27T02:10:21.549Z,0.97
2023-03-27T02:11:21.627Z,0.80
2023-03-27T02:12:21.653Z,1.10
2023-03-27T02:13:21.684Z,0.75
2023-03-27T02:14:21.744Z,1.09
2023-03-27T02:15:23.051Z,0.86
2023-03-27T02:16:21.923Z,0.71
2023-03-27T02:23:21.779Z,0.82
2023-03-27T02:24:21.759Z,0.88
2023-03-27T02:25:22.578Z,0.78
2023-03-27T02:31:32.615Z,1.00
2023-03-27T02:33:21.696Z,1.00
2023-03-27T02:35:21.719Z,1.03
2023-03-27T02:38:21.661Z,0.91
2023-03-27T02:39:21.670Z,0.81
2023-03-27T02:40:21.687Z,0.78
2023-03-27T02:41:21.702Z,0.86
2023-03-27T02:42:21.791Z,0.74
2023-03-27T02:43:21.833Z,0.88
2023-03-27T02:44:22.121Z,0.87
2023-03-27T02:49:22.155Z,1.07
2023-03-27T02:50:22.189Z,0.85
2023-03-27T02:51:22.222Z,0.67
2023-03-27T02:52:22.287Z,0.87
2023-03-27T02:53:22.330Z,0.66
2023-03-27T02:54:22.380Z,0.84
2023-03-27T02:55:22.412Z,0.93
2023-03-27T02:56:22.451Z,0.76
2023-03-27T02:57:24.813Z,1.02
2023-03-27T02:58:22.708Z,0.83
2023-03-27T02:59:22.763Z,0.76
2023-03-27T03:00:22.808Z,0.76
2023-03-27T03:01:22.862Z,0.70
2023-03-27T03:02:23.043Z,0.89
2023-03-27T03:03:22.924Z,0.87
2023-03-27T03:04:22.968Z,0.67
2023-03-27T03:09:23.144Z,0.61
2023-03-27T03:10:23.165Z,0.48
2023-03-27T03:11:23.217Z,0.66
2023-03-27T03:12:23.270Z,0.69
2023-03-27T03:13:23.290Z,0.66
2023-03-27T03:14:23.350Z,0.59
2023-03-27T03:15:23.400Z,0.83
2023-03-27T03:16:23.463Z,0.81
2023-03-27T03:17:23.502Z,0.86
2023-03-27T03:18:23.494Z,0.85
2023-03-27T03:19:23.584Z,0.69
2023-03-27T03:20:23.599Z,0.99
2023-03-27T03:25:23.780Z,0.76
2023-03-27T03:26:23.814Z,1.13
2023-03-27T03:27:23.862Z,0.52
2023-03-27T03:28:23.855Z,0.53
2023-03-27T03:29:23.924Z,0.72
2023-03-27T03:30:23.969Z,0.62
2023-03-27T03:31:24.014Z,0.77
2023-03-27T03:32:24.042Z,0.73
2023-03-27T03:33:24.072Z,0.53
2023-03-27T03:34:24.128Z,0.72
2023-03-27T03:35:24.240Z,0.79
2023-03-27T03:42:24.522Z,0.68
2023-03-27T03:43:24.421Z,0.66
2023-03-27T03:44:24.410Z,0.62
2023-03-27T03:45:24.469Z,0.76
2023-03-27T03:46:24.501Z,0.85
2023-03-27T03:47:24.560Z,0.69
2023-03-27T03:48:24.549Z,0.70
2023-03-27T03:49:24.585Z,0.56
2023-03-27T03:50:24.577Z,0.67
2023-03-27T03:51:24.613Z,0.72
2023-03-27T03:52:24.625Z,0.71
2023-03-27T03:53:24.686Z,0.73
2023-03-27T03:54:24.686Z,0.51
2023-03-27T03:55:24.721Z,0.65
2023-03-27T03:56:24.745Z,0.62
2023-03-27T03:57:24.764Z,0.60
2023-03-27T03:58:34.823Z,0.70
2023-03-27T03:59:25.771Z,0.60
2023-03-27T04:07:24.724Z,0.56
2023-03-27T04:08:24.742Z,0.47
2023-03-27T04:09:24.698Z,0.44
2023-03-27T04:10:24.695Z,0.60
2023-03-27T04:14:24.677Z,0.38
2023-03-27T04:19:24.751Z,0.60
2023-03-27T04:21:24.736Z,0.61
2023-03-27T04:22:24.771Z,0.51
2023-03-27T04:23:24.756Z,0.59
2023-03-27T04:24:24.757Z,0.34
2023-03-27T04:25:24.769Z,0.38
2023-03-27T04:26:24.859Z,0.33
2023-03-27T04:27:24.858Z,0.65
2023-03-27T04:28:24.875Z,0.51
2023-03-27T04:29:24.891Z,0.64
2023-03-27T04:30:24.879Z,0.63
2023-03-27T04:31:24.974Z,0.48
2023-03-27T04:32:24.957Z,0.44
2023-03-27T04:33:24.932Z,0.26
2023-03-27T04:34:24.966Z,0.49
2023-03-27T04:35:25.029Z,0.58
2023-03-27T04:36:25.006Z,0.37
2023-03-27T04:37:24.997Z,0.37
2023-03-27T04:38:25.037Z,0.54
2023-03-27T04:40:25.051Z,0.69
2023-03-27T04:41:25.094Z,0.42
2023-03-27T04:42:25.108Z,0.59
2023-03-27T04:43:25.125Z,0.37
2023-03-27T04:44:25.154Z,0.57
2023-03-27T04:45:25.173Z,0.35
2023-03-27T04:46:25.238Z,0.39
2023-03-27T04:47:25.265Z,0.54
2023-03-27T04:48:25.265Z,0.39
2023-03-27T04:49:25.263Z,0.44
2023-03-27T04:50:25.291Z,0.32
2023-03-27T04:51:25.324Z,0.58
2023-03-27T04:52:25.348Z,0.39
2023-03-27T04:53:25.378Z,0.53
2023-03-27T04:54:25.412Z,0.40
2023-03-27T04:55:25.475Z,0.39
2023-03-27T04:56:25.476Z,0.74
2023-03-27T04:59:25.515Z,0.61
2023-03-27T05:00:32.813Z,0.53
2023-03-27T05:02:25.556Z,0.40
2023-03-27T05:03:25.569Z,0.28
2023-03-27T05:05:25.542Z,0.38
2023-03-27T05:08:25.520Z,0.37
2023-03-27T05:09:25.482Z,0.55
2023-03-27T05:10:25.507Z,0.38
2023-03-27T05:12:25.539Z,0.38
2023-03-27T05:16:25.452Z,0.46
2023-03-27T05:19:26.673Z,0.44
2023-03-27T05:21:25.673Z,0.41
2023-03-27T05:24:25.391Z,0.29
2023-03-27T05:25:26.277Z,0.29
2023-03-27T05:28:25.475Z,0.19
2023-03-27T05:31:25.624Z,0.50
2023-03-27T05:32:25.656Z,0.52
2023-03-27T05:33:25.724Z,0.46
2023-03-27T05:34:25.685Z,0.68
2023-03-27T05:35:25.856Z,0.72
2023-03-27T05:36:26.209Z,0.86
2023-03-27T05:37:27.513Z,0.80
2023-03-27T05:38:25.917Z,0.79
2023-03-27T05:39:26.011Z,1.02
2023-03-27T05:40:26.056Z,0.83
2023-03-27T05:41:26.250Z,0.83
2023-03-27T05:47:26.344Z,1.22
2023-03-27T05:48:26.384Z,1.42
2023-03-27T05:49:26.307Z,1.45
2023-03-27T05:52:28.663Z,0.79
2023-03-27T05:53:28.543Z,1.00
2023-03-27T05:54:27.460Z,1.10
2023-03-27T05:57:26.435Z,0.93
2023-03-27T05:58:26.453Z,1.23
2023-03-27T05:59:26.428Z,0.85
2023-03-27T06:00:26.434Z,0.85
2023-03-27T06:05:26.374Z,0.82
2023-03-27T06:06:26.384Z,1.34
2023-03-27T06:07:26.369Z,0.78
2023-03-27T06:09:26.415Z,1.02
2023-03-27T06:10:26.552Z,0.84
2023-03-27T06:17:26.944Z,0.82
2023-03-27T06:18:26.928Z,0.64
2023-03-27T06:19:26.974Z,0.74
2023-03-27T06:20:27.006Z,1.08
2023-03-27T06:21:27.753Z,1.15
2023-03-27T06:22:27.076Z,0.81
2023-03-27T06:23:27.125Z,0.54
2023-03-27T06:24:27.136Z,1.12
2023-03-27T06:25:27.172Z,1.07
2023-03-27T06:26:27.218Z,1.17
2023-03-27T06:27:27.247Z,1.07
2023-03-27T06:30:27.313Z,0.99
2023-03-27T06:31:27.405Z,0.85
2023-03-27T06:32:27.738Z,0.78
2023-03-27T06:33:27.415Z,1.08
2023-03-27T06:34:27.391Z,0.70
2023-03-27T06:35:27.425Z,0.77
2023-03-27T06:36:27.512Z,1.26
2023-03-27T06:37:27.456Z,0.98
2023-03-27T06:38:27.478Z,1.26
2023-03-27T06:39:27.565Z,0.99
2023-03-27T06:41:27.637Z,1.46
2023-03-27T06:43:27.606Z,1.03
2023-03-27T06:44:27.647Z,1.52
2023-03-27T06:50:27.821Z,1.07
2023-03-27T06:51:27.901Z,1.90
2023-03-27T06:53:28.966Z,0.91
2023-03-27T06:54:27.952Z,1.57
2023-03-27T06:55:27.968Z,0.92
2023-03-27T06:56:27.968Z,0.97
2023-03-27T06:57:28.245Z,0.69
2023-03-27T06:58:28.014Z,0.84
2023-03-27T07:02:28.313Z,0.72
2023-03-27T07:05:28.230Z,2.06
2023-03-27T07:06:28.232Z,1.02
2023-03-27T07:07:28.315Z,1.12
2023-03-27T07:08:28.351Z,0.73
2023-03-27T07:09:28.393Z,0.88
2023-03-27T07:10:28.439Z,0.82
2023-03-27T07:11:30.632Z,1.21
2023-03-27T07:12:28.503Z,0.91
2023-03-27T07:15:28.466Z,0.65
2023-03-27T07:16:28.486Z,0.58
2023-03-27T07:17:41.808Z,0.59
2023-03-27T07:18:29.466Z,0.97
2023-03-27T07:24:28.383Z,0.85
2023-03-27T07:25:28.404Z,0.74
2023-03-27T07:29:28.405Z,0.72
2023-03-27T07:31:40.147Z,0.97
2023-03-27T07:32:36.721Z,0.85
2023-03-27T07:34:28.308Z,1.25
2023-03-27T07:35:28.329Z,0.96
2023-03-27T07:36:28.337Z,0.80
2023-03-27T07:37:28.309Z,0.72
2023-03-27T07:38:28.337Z,0.84
2023-03-27T07:42:28.281Z,0.93
2023-03-27T07:43:28.279Z,1.02
2023-03-27T07:44:29.274Z,1.17
2023-03-27T07:50:28.271Z,0.99
2023-03-27T07:52:28.231Z,1.04
2023-03-27T07:53:32.902Z,0.52
2023-03-27T07:54:30.189Z,0.99
2023-03-27T07:58:28.455Z,0.74
2023-03-27T08:00:28.771Z,0.72
2023-03-27T08:04:28.213Z,0.59
2023-03-27T08:05:28.176Z,1.18
2023-03-27T08:06:28.192Z,0.82
2023-03-27T08:07:28.319Z,1.14
2023-03-27T08:08:28.389Z,0.82
2023-03-27T08:09:28.357Z,1.78
2023-03-27T08:10:28.428Z,1.34
2023-03-27T08:11:31.005Z,1.83
2023-03-27T08:12:28.795Z,1.32
2023-03-27T08:13:28.498Z,1.97
2023-03-27T08:14:28.467Z,1.63
2023-03-27T08:20:28.370Z,2.81
2023-03-27T08:22:28.827Z,2.08
2023-03-27T08:23:28.374Z,2.33
2023-03-27T08:24:28.376Z,1.96
2023-03-27T08:28:28.302Z,2.33
2023-03-27T08:29:28.378Z,2.95
2023-03-27T08:30:28.375Z,2.23
2023-03-27T08:33:28.325Z,1.52
2023-03-27T08:36:28.257Z,1.74
2023-03-27T08:37:28.289Z,1.60
2023-03-27T08:38:28.248Z,1.90
2023-03-27T08:39:28.258Z,1.41
2023-03-27T08:40:28.429Z,2.22
2023-03-27T08:44:28.258Z,0.94
2023-03-27T08:48:28.169Z,0.74
2023-03-27T08:49:28.182Z,0.48
2023-03-27T08:53:29.525Z,2.28
2023-03-27T08:56:28.276Z,2.15
2023-03-27T09:00:28.089Z,2.59
2023-03-27T09:01:28.129Z,1.39
2023-03-27T09:02:28.173Z,1.60
2023-03-27T09:03:28.219Z,2.18
2023-03-27T09:06:28.042Z,1.16
2023-03-27T09:07:28.107Z,1.60
2023-03-27T09:16:28.216Z,1.07
2023-03-27T09:17:28.171Z,4.35
2023-03-27T09:18:28.194Z,1.11
2023-03-27T09:19:28.324Z,1.69
2023-03-27T09:27:28.822Z,1.80
2023-03-27T09:28:28.454Z,2.22
2023-03-27T09:33:28.528Z,1.52
2023-03-27T09:34:28.530Z,1.37
2023-03-27T09:35:28.563Z,1.71
2023-03-27T09:43:28.568Z,1.55
2023-03-27T09:44:28.597Z,1.26
2023-03-27T09:49:28.737Z,1.55
2023-03-27T09:50:28.745Z,1.87
2023-03-27T09:51:28.767Z,1.68
2023-03-27T09:52:28.770Z,1.93
2023-03-27T09:53:28.774Z,2.10
2023-03-27T09:54:28.862Z,1.97
2023-03-27T09:55:28.849Z,1.95
2023-03-27T09:56:29.825Z,2.28
2023-03-27T09:57:28.916Z,1.68
2023-03-27T10:03:28.921Z,2.22
2023-03-27T10:04:28.851Z,1.64
2023-03-27T10:05:28.961Z,2.37
2023-03-27T10:06:29.831Z,2.09
2023-03-27T10:07:29.024Z,1.94
2023-03-27T10:08:29.086Z,2.45
2023-03-27T10:09:29.151Z,1.70
2023-03-27T10:10:29.182Z,2.72
2023-03-27T10:11:29.259Z,1.96
2023-03-27T10:12:29.287Z,1.79
2023-03-27T10:13:29.417Z,1.92
2023-03-27T10:14:29.400Z,2.00
2023-03-27T10:15:29.449Z,1.71
2023-03-27T10:16:29.570Z,1.67
2023-03-27T10:17:29.664Z,2.33
2023-03-27T10:18:29.767Z,1.79
2023-03-27T10:19:29.758Z,1.98
2023-03-27T10:22:29.789Z,1.83
2023-03-27T10:24:29.800Z,2.32
2023-03-27T10:25:29.864Z,1.46
2023-03-27T10:26:29.883Z,1.79
2023-03-27T10:27:29.984Z,2.39
2023-03-27T10:28:29.943Z,1.89
2023-03-27T10:29:30.014Z,1.77
2023-03-27T10:30:30.015Z,2.19
2023-03-27T10:31:30.082Z,1.87
2023-03-27T10:32:30.097Z,1.84
2023-03-27T10:33:30.380Z,1.59
2023-03-27T10:40:30.276Z,1.99
2023-03-27T10:41:30.302Z,1.92
2023-03-27T10:42:30.329Z,1.64
2023-03-27T10:43:30.839Z,1.53
2023-03-27T10:44:30.397Z,2.19
2023-03-27T10:45:30.464Z,1.48
2023-03-27T10:46:30.537Z,1.51
2023-03-27T10:47:30.521Z,1.73
2023-03-27T10:48:30.525Z,1.61
2023-03-27T10:49:30.552Z,1.31
2023-03-27T10:50:30.576Z,1.62
2023-03-27T10:51:39.438Z,1.76
2023-03-27T10:52:31.590Z,1.75
2023-03-27T10:57:30.528Z,1.16
2023-03-27T10:58:30.577Z,1.30
2023-03-27T10:59:41.008Z,1.52
2023-03-27T11:00:31.509Z,1.09
2023-03-27T11:04:30.532Z,1.57
2023-03-27T11:09:30.435Z,1.23
2023-03-27T11:13:30.476Z,1.53
2023-03-27T11:14:30.411Z,1.31
2023-03-27T11:20:30.359Z,0.97
2023-03-27T11:24:30.365Z,1.19
2023-03-27T11:27:30.346Z,1.59
2023-03-27T11:34:30.531Z,1.04
2023-03-27T11:35:30.617Z,1.20
2023-03-27T11:36:30.726Z,1.60
2023-03-27T11:37:30.716Z,1.22
2023-03-27T11:38:30.863Z,1.09
2023-03-27T11:41:30.841Z,1.26
2023-03-27T11:42:30.840Z,1.44
2023-03-27T11:43:30.843Z,1.12
2023-03-27T11:44:30.799Z,1.11
2023-03-27T11:45:30.844Z,0.93
2023-03-27T11:49:30.958Z,1.59
2023-03-27T11:50:31.004Z,1.16
2023-03-27T11:51:31.007Z,0.87
2023-03-27T11:52:31.087Z,0.98
2023-03-27T11:53:31.122Z,0.98
2023-03-27T11:54:31.169Z,0.78
2023-03-27T11:55:32.424Z,0.87
2023-03-27T11:56:31.328Z,1.00
2023-03-27T11:57:31.383Z,0.92
2023-03-27T11:58:31.428Z,0.82
2023-03-27T11:59:31.490Z,1.13
2023-03-27T12:00:31.546Z,1.26
2023-03-27T12:01:31.595Z,0.87
2023-03-27T12:02:31.785Z,1.26
2023-03-27T12:03:31.727Z,0.85
2023-03-27T12:04:31.751Z,1.37
2023-03-27T12:05:31.799Z,0.90
2023-03-27T12:06:31.871Z,1.11
2023-03-27T12:07:36.438Z,0.78
2023-03-27T12:08:32.915Z,0.92
2023-03-27T12:14:40.576Z,1.19
2023-03-27T12:15:32.894Z,1.05
2023-03-27T12:16:31.868Z,1.19
2023-03-27T12:17:31.867Z,0.88
2023-03-27T12:21:31.849Z,0.82
2023-03-27T12:24:31.889Z,0.51
2023-03-27T12:25:33.590Z,0.80
2023-03-27T12:26:31.953Z,0.84
2023-03-27T12:27:31.947Z,0.61
2023-03-27T12:28:31.965Z,0.62
2023-03-27T12:31:32.019Z,1.23
2023-03-27T12:34:31.921Z,0.69
2023-03-27T12:35:31.930Z,0.91
2023-03-27T12:40:31.857Z,0.86
2023-03-27T12:43:31.839Z,0.86
2023-03-27T12:46:31.856Z,0.80
2023-03-27T12:47:31.866Z,0.82
2023-03-27T12:48:31.868Z,0.81
2023-03-27T12:52:32.381Z,1.03
2023-03-27T12:55:31.760Z,0.84
2023-03-27T12:56:31.750Z,0.86
2023-03-27T13:01:36.358Z,0.52
2023-03-27T13:02:32.804Z,0.82
2023-03-27T13:05:31.728Z,0.56
2023-03-27T13:07:31.667Z,0.56
2023-03-27T13:08:31.686Z,0.65
2023-03-27T13:09:31.697Z,0.66
2023-03-27T13:10:31.665Z,0.70
2023-03-27T13:15:31.713Z,0.70
2023-03-27T13:16:31.696Z,0.72
2023-03-27T13:17:31.724Z,1.05
2023-03-27T13:20:31.597Z,0.64
2023-03-27T13:21:31.630Z,1.01
2023-03-27T13:25:31.652Z,0.87
2023-03-27T13:26:31.615Z,1.01
2023-03-27T13:27:31.614Z,0.95
2023-03-27T13:32:31.768Z,0.93
2023-03-27T13:33:31.570Z,0.61
2023-03-27T13:34:31.601Z,0.81
2023-03-27T13:40:31.607Z,0.72
2023-03-27T13:41:31.603Z,0.91
2023-03-27T13:42:31.609Z,0.73
2023-03-27T13:47:31.700Z,0.49
2023-03-27T13:48:31.649Z,0.71
2023-03-27T13:49:31.659Z,0.90
2023-03-27T13:50:31.654Z,0.62
2023-03-27T13:52:31.670Z,0.53
2023-03-27T13:53:31.797Z,0.88
2023-03-27T13:54:31.748Z,0.80
2023-03-27T13:55:31.751Z,0.51
2023-03-27T13:56:31.833Z,0.80
2023-03-27T13:57:31.891Z,1.21
2023-03-27T13:58:31.966Z,0.75
2023-03-27T13:59:32.129Z,0.55
2023-03-27T14:00:32.039Z,0.54
2023-03-27T14:01:32.230Z,0.60
2023-03-27T14:02:32.270Z,0.63
2023-03-27T14:03:32.297Z,0.74
2023-03-27T14:04:32.274Z,0.71
2023-03-27T14:05:32.308Z,0.73
2023-03-27T14:06:32.399Z,0.58
2023-03-27T14:07:32.381Z,0.48
2023-03-27T14:08:32.487Z,0.72
2023-03-27T14:09:32.507Z,0.83
2023-03-27T14:10:32.538Z,0.75
2023-03-27T14:11:32.560Z,0.85
2023-03-27T14:12:32.635Z,0.75
2023-03-27T14:13:32.657Z,0.78
2023-03-27T14:14:32.668Z,1.45
2023-03-27T14:15:32.746Z,0.56
2023-03-27T14:16:32.851Z,0.66
2023-03-27T14:30:33.263Z,1.32
2023-03-27T14:31:33.330Z,1.10
2023-03-27T14:32:33.355Z,1.02
2023-03-27T14:33:33.377Z,1.09
2023-03-27T14:34:47.220Z,1.34
2023-03-27T14:35:34.469Z,1.04
2023-03-27T14:42:33.608Z,0.85
2023-03-27T14:43:33.473Z,0.86
2023-03-27T14:45:33.385Z,0.97
2023-03-27T14:51:33.409Z,1.13
2023-03-27T14:52:33.420Z,0.63
2023-03-27T14:53:33.386Z,0.93
2023-03-27T14:54:41.720Z,0.92
2023-03-27T14:55:34.446Z,0.85
2023-03-27T15:00:33.401Z,0.90
2023-03-27T15:02:33.420Z,0.90
2023-03-27T15:05:33.333Z,0.78
2023-03-27T15:14:33.359Z,0.94
2023-03-27T15:15:33.362Z,0.65
2023-03-27T15:16:33.451Z,0.78
2023-03-27T15:17:33.490Z,0.58
2023-03-27T15:18:33.451Z,0.80
2023-03-27T15:19:33.487Z,0.81
2023-03-27T15:20:33.548Z,1.11
2023-03-27T15:21:33.546Z,0.75
2023-03-27T15:22:33.596Z,1.05
2023-03-27T15:23:33.623Z,0.66
2023-03-27T15:24:33.717Z,0.97
2023-03-27T15:25:33.732Z,1.07
2023-03-27T15:27:33.726Z,1.04
2023-03-27T15:28:33.760Z,0.73
2023-03-27T15:29:33.779Z,0.76
2023-03-27T15:30:33.888Z,0.87
2023-03-27T15:31:33.865Z,0.86
2023-03-27T15:32:33.958Z,0.75
2023-03-27T15:33:33.926Z,0.76
2023-03-27T15:34:33.939Z,0.72
2023-03-27T15:35:33.958Z,0.93
2023-03-27T15:36:33.988Z,0.74
2023-03-27T15:37:33.992Z,0.79
2023-03-27T15:38:34.071Z,1.03
2023-03-27T15:39:34.078Z,0.47
2023-03-27T15:40:34.284Z,0.92
2023-03-27T15:45:34.285Z,0.91
2023-03-27T15:46:34.366Z,1.39
2023-03-27T15:47:34.398Z,0.72
2023-03-27T15:48:34.393Z,1.23
2023-03-27T15:49:34.465Z,1.03
2023-03-27T15:50:34.537Z,1.00
2023-03-27T15:51:34.526Z,1.16
2023-03-27T15:52:34.529Z,1.10
2023-03-27T15:53:34.581Z,1.02
2023-03-27T15:54:34.626Z,1.09
2023-03-27T15:55:34.660Z,1.06
2023-03-27T15:56:34.716Z,1.11
2023-03-27T15:57:34.781Z,1.02
2023-03-27T16:03:34.986Z,1.20
2023-03-27T16:04:34.961Z,1.24
2023-03-27T16:05:34.978Z,1.69
2023-03-27T16:06:35.009Z,1.17
2023-03-27T16:07:35.046Z,1.51
2023-03-27T16:08:35.050Z,1.29
2023-03-27T16:09:35.076Z,1.09
2023-03-27T16:10:35.141Z,1.16
2023-03-27T16:11:35.231Z,1.37
2023-03-27T16:12:35.246Z,1.34
2023-03-27T16:13:35.281Z,1.27
2023-03-27T16:14:35.365Z,1.23
2023-03-27T16:15:35.469Z,0.90
2023-03-27T16:16:35.554Z,0.72
2023-03-27T16:17:35.557Z,1.32
2023-03-27T16:18:35.609Z,1.28
2023-03-27T16:19:36.191Z,1.72
2023-03-27T16:22:35.856Z,0.85
2023-03-27T16:23:35.892Z,1.16
2023-03-27T16:24:35.969Z,1.23
2023-03-27T16:25:36.015Z,1.09
2023-03-27T16:26:36.077Z,1.18
2023-03-27T16:27:36.122Z,1.06
2023-03-27T16:28:36.219Z,1.20
2023-03-27T16:29:36.256Z,0.97
2023-03-27T16:30:36.313Z,1.51
2023-03-27T16:31:36.436Z,1.24
2023-03-27T16:32:36.475Z,1.45
2023-03-27T16:33:36.496Z,2.36
2023-03-27T16:34:36.554Z,1.28
2023-03-27T16:35:36.638Z,0.70
2023-03-27T16:36:36.648Z,1.36
2023-03-27T16:37:36.697Z,1.18
2023-03-27T16:38:36.757Z,0.93
2023-03-27T16:39:36.751Z,0.96
2023-03-27T16:40:36.805Z,1.06
2023-03-27T16:41:36.852Z,1.10
2023-03-27T16:42:36.870Z,1.53
2023-03-27T16:43:36.886Z,1.14
2023-03-27T16:44:36.905Z,1.19
2023-03-27T16:45:36.976Z,1.06
2023-03-27T16:46:37.000Z,1.37
2023-03-27T16:47:37.023Z,1.27
2023-03-27T16:48:37.071Z,1.22
2023-03-27T16:49:37.093Z,1.03
2023-03-27T16:50:37.129Z,0.99
2023-03-27T16:51:37.197Z,1.46
2023-03-27T16:52:37.222Z,1.11
2023-03-27T16:53:37.255Z,1.07
2023-03-27T16:54:37.302Z,0.88
2023-03-27T16:55:37.274Z,0.98
2023-03-27T16:56:37.334Z,1.28
2023-03-27T16:58:37.386Z,1.31
2023-03-27T16:59:37.383Z,0.98
2023-03-27T17:00:37.453Z,1.22
2023-03-27T17:04:37.493Z,1.19
2023-03-27T17:05:37.487Z,1.22
2023-03-27T17:06:37.493Z,1.09
2023-03-27T17:07:37.507Z,1.06
2023-03-27T17:08:37.540Z,1.04
2023-03-27T17:17:37.623Z,0.80
2023-03-27T17:22:37.571Z,1.09
2023-03-27T17:23:37.636Z,1.15
2023-03-27T17:26:37.598Z,1.12
2023-03-27T17:27:37.634Z,1.20
2023-03-27T17:28:37.582Z,0.97
2023-03-27T17:29:37.611Z,1.49
2023-03-27T17:30:42.712Z,0.91
2023-03-27T17:31:38.620Z,1.23
2023-03-27T17:38:37.549Z,1.16
2023-03-27T17:40:37.574Z,1.53
2023-03-27T17:43:37.566Z,1.62
2023-03-27T17:44:37.517Z,1.04
2023-03-27T17:48:37.525Z,1.36
2023-03-27T17:49:37.509Z,1.14
2023-03-27T17:56:37.521Z,1.25
2023-03-27T17:57:37.475Z,1.51
2023-03-27T17:58:37.503Z,1.36
2023-03-27T17:59:37.518Z,1.46
2023-03-27T18:00:37.571Z,1.38
2023-03-27T18:02:37.634Z,1.85
2023-03-27T18:03:37.693Z,1.84
2023-03-27T18:04:37.587Z,1.52
2023-03-27T18:05:37.609Z,1.80
2023-03-27T18:06:37.606Z,1.88
2023-03-27T18:07:37.610Z,1.39
2023-03-27T18:08:37.648Z,1.70
2023-03-27T18:09:37.654Z,1.83
2023-03-27T18:10:37.698Z,1.86
2023-03-27T18:11:37.734Z,1.44
2023-03-27T18:15:37.745Z,1.77
2023-03-27T18:16:37.730Z,1.40
2023-03-27T18:17:37.826Z,1.81
2023-03-27T18:18:37.786Z,1.93
2023-03-27T18:19:37.803Z,1.95
2023-03-27T18:20:37.798Z,1.87
2023-03-27T18:21:37.808Z,1.88
2023-03-27T18:22:37.849Z,1.54
2023-03-27T18:23:37.886Z,1.68
2023-03-27T18:24:38.839Z,1.67
2023-03-27T18:26:37.831Z,1.49
2023-03-27T18:27:37.839Z,2.01
2023-03-27T18:28:37.842Z,2.49
2023-03-27T18:29:37.898Z,1.89
2023-03-27T18:34:37.794Z,2.03
2023-03-27T18:39:37.754Z,1.89
2023-03-27T18:40:37.751Z,2.08
2023-03-27T18:46:37.694Z,2.09
2023-03-27T18:51:37.638Z,1.94
2023-03-27T18:52:37.628Z,2.18
2023-03-27T18:53:37.672Z,2.14
2023-03-27T18:55:37.644Z,2.36
2023-03-27T18:56:37.729Z,2.43
2023-03-27T18:57:37.688Z,1.92
2023-03-27T18:58:37.690Z,2.21
2023-03-27T18:59:37.717Z,2.14
2023-03-27T19:00:37.744Z,2.18
2023-03-27T19:01:37.832Z,2.06
2023-03-27T19:02:37.880Z,2.00
2023-03-27T19:03:37.802Z,2.05
2023-03-27T19:04:37.827Z,1.85
2023-03-27T19:11:37.961Z,1.77
2023-03-27T19:12:37.987Z,2.05
2023-03-27T19:13:38.005Z,1.85
2023-03-27T19:14:38.075Z,1.90
2023-03-27T19:19:38.447Z,1.81
2023-03-27T19:20:38.167Z,2.00
2023-03-27T19:21:38.225Z,1.61
2023-03-27T19:22:38.382Z,1.97
2023-03-27T19:27:38.622Z,1.84
2023-03-27T19:28:38.354Z,1.63
2023-03-27T19:29:38.386Z,1.35
2023-03-27T19:30:38.492Z,1.86
2023-03-27T19:31:38.472Z,1.66
2023-03-27T19:32:38.474Z,1.45
2023-03-27T19:33:38.478Z,2.10
2023-03-27T19:34:42.700Z,1.47
2023-03-27T19:40:38.495Z,1.49
2023-03-27T19:45:38.439Z,1.62
2023-03-27T19:46:38.444Z,1.42
2023-03-27T19:47:38.460Z,1.62
2023-03-27T19:50:38.417Z,1.31
2023-03-27T19:51:38.411Z,1.55
2023-03-27T19:52:38.386Z,1.39
2023-03-27T19:55:38.384Z,1.70
2023-03-27T19:56:38.414Z,1.46
2023-03-27T19:57:38.365Z,1.39
2023-03-27T20:02:38.450Z,1.35
2023-03-27T20:03:38.946Z,1.34
2023-03-27T20:04:38.424Z,1.31
2023-03-27T20:05:38.466Z,1.77
2023-03-27T20:06:38.535Z,1.25
2023-03-27T20:07:38.520Z,1.17
2023-03-27T20:08:38.573Z,1.62
2023-03-27T20:10:38.633Z,1.36
2023-03-27T20:11:38.621Z,1.41
2023-03-27T20:12:38.657Z,1.34
2023-03-27T20:13:49.033Z,1.32
2023-03-27T20:14:39.739Z,1.37
2023-03-27T20:19:38.633Z,1.12
2023-03-27T20:20:38.638Z,1.19
2023-03-27T20:21:38.657Z,1.11
2023-03-27T20:22:50.087Z,1.17
2023-03-27T20:23:39.616Z,1.27
2023-03-27T20:29:38.560Z,1.17
2023-03-27T20:32:38.536Z,1.20
2023-03-27T20:33:38.535Z,1.45
2023-03-27T20:34:38.543Z,1.28
2023-03-27T20:41:38.542Z,1.65
2023-03-27T20:42:38.547Z,1.18
2023-03-27T20:43:38.591Z,1.13
2023-03-27T20:44:38.605Z,0.88
2023-03-27T20:45:38.704Z,1.13
2023-03-27T20:46:38.752Z,1.08
2023-03-27T20:47:38.762Z,1.16
2023-03-27T20:48:38.758Z,1.21
2023-03-27T20:49:41.558Z,1.31
2023-03-27T20:51:38.790Z,1.53
2023-03-27T20:56:38.764Z,0.91
2023-03-27T20:58:38.766Z,1.76
2023-03-27T20:59:38.749Z,1.53
2023-03-27T21:01:38.672Z,1.64
2023-03-27T21:02:38.807Z,1.15
2023-03-27T21:10:38.628Z,1.31
2023-03-27T21:15:38.600Z,1.16
2023-03-27T21:16:38.610Z,1.73
2023-03-27T21:17:38.617Z,1.31
2023-03-27T21:18:38.604Z,1.36
2023-03-27T21:53:38.720Z,1.34
2023-03-27T21:54:38.779Z,1.30
2023-03-27T21:55:38.845Z,1.23
2023-03-27T21:56:38.867Z,1.24
2023-03-27T21:57:38.904Z,1.45
2023-03-27T21:58:38.954Z,1.43
2023-03-27T21:59:39.011Z,1.76
2023-03-27T22:00:39.056Z,1.01
2023-03-27T22:01:39.121Z,1.46
2023-03-27T22:02:39.154Z,1.22
2023-03-27T22:03:39.176Z,1.37
2023-03-27T22:04:39.227Z,1.18
2023-03-27T22:05:39.270Z,1.35
2023-03-27T22:06:39.324Z,1.07